Derby, Vermont
Current Conditions -  °F | °C
As of 4:35 AM on Friday 28 Nov 2014 (Local Time) from KEFK Reporting Station
Light Snow Light Snow  
Wind Chill: 20°   Ceiling: 2100
Heat Index: 20°   Visibility: 3mi
Dew Point: 19°   Wind: 3mph
Humidity: 93%   Direction: 220°SW
Pressure: 30"   Gusts: NA
Location:  44.96°N, 72.13°W
Report Text: KEFK 280935Z AUTO 22003KT 3SM -SN BKN021 BKN028 OVC037 M06/M07 A3000 RMK AO2 T10651074
Loading
Personal Weather Stations






























Interactive Weather Map New forecast layout! Learn more

10-Day Weather Forecast

Advertisements
Track Severe Weather on mobile